createdAt,value
2018-03-26T00:00:16.006Z,41.80
2018-03-26T00:02:43.604Z,35.00
2018-03-26T00:05:11.972Z,40.43
2018-03-26T00:07:40.328Z,39.60
2018-03-26T00:10:07.917Z,36.53
2018-03-26T00:12:36.260Z,38.10
2018-03-26T00:15:03.868Z,35.97
2018-03-26T00:17:31.492Z,37.47
2018-03-26T00:19:59.094Z,37.57
2018-03-26T00:22:26.679Z,39.97
2018-03-26T00:24:54.286Z,39.90
2018-03-26T00:27:22.640Z,42.03
2018-03-26T00:29:50.240Z,38.97
2018-03-26T00:32:18.642Z,37.20
2018-03-26T00:34:46.247Z,38.03
2018-03-26T00:37:13.848Z,38.70
2018-03-26T00:39:41.480Z,46.83
2018-03-26T00:42:09.105Z,35.77
2018-03-26T00:44:36.686Z,34.63
2018-03-26T00:47:04.311Z,41.77
2018-03-26T00:49:31.889Z,40.33
2018-03-26T00:51:59.498Z,36.07
2018-03-26T00:54:27.890Z,38.37
2018-03-26T00:56:55.608Z,33.40
2018-03-26T00:59:23.208Z,37.10
2018-03-26T01:01:51.565Z,34.53
2018-03-26T01:04:19.158Z,38.03
2018-03-26T01:06:46.764Z,32.80
2018-03-26T01:09:14.347Z,28.63
2018-03-26T01:11:42.084Z,27.47
2018-03-26T01:14:09.676Z,31.40
2018-03-26T01:16:37.282Z,31.87
2018-03-26T01:19:04.852Z,35.77
2018-03-26T01:21:32.484Z,32.13
2018-03-26T01:24:00.360Z,29.77
2018-03-26T01:26:27.957Z,48.47
2018-03-26T01:28:55.547Z,31.33
2018-03-26T01:31:23.168Z,31.37
2018-03-26T01:33:50.754Z,33.67
2018-03-26T01:36:18.369Z,33.00
2018-03-26T01:38:46.707Z,32.43
2018-03-26T01:41:14.339Z,30.17
2018-03-26T01:43:41.948Z,33.90
2018-03-26T01:46:10.331Z,30.93
2018-03-26T01:48:37.898Z,33.23
2018-03-26T01:51:06.274Z,38.37
2018-03-26T01:53:34.705Z,35.60
2018-03-26T01:56:02.304Z,33.87
2018-03-26T01:58:30.676Z,31.83
2018-03-26T02:00:58.272Z,36.43
2018-03-26T02:03:25.897Z,30.53
2018-03-26T02:05:54.268Z,36.17
2018-03-26T02:08:22.104Z,41.93
2018-03-26T02:10:49.692Z,39.93
2018-03-26T02:13:17.296Z,39.33
2018-03-26T02:15:44.864Z,40.40
2018-03-26T02:18:12.494Z,37.67
2018-03-26T02:20:40.089Z,37.93
2018-03-26T02:23:07.690Z,37.33
2018-03-26T02:25:36.226Z,34.23
2018-03-26T02:28:03.843Z,38.40
2018-03-26T02:30:31.421Z,34.00
2018-03-26T02:32:59.788Z,43.00
2018-03-26T02:35:27.372Z,39.13
2018-03-26T02:37:55.747Z,44.57
2018-03-26T02:40:23.362Z,42.53
2018-03-26T02:42:50.944Z,37.20
2018-03-26T02:45:20.329Z,45.60
2018-03-26T02:47:49.596Z,43.10
2018-03-26T02:50:18.829Z,44.63
2018-03-26T02:52:48.093Z,38.83
2018-03-26T02:55:17.315Z,38.67
2018-03-26T02:57:46.605Z,41.47
2018-03-26T03:00:15.858Z,46.97
2018-03-26T03:02:45.300Z,37.13
2018-03-26T03:05:14.497Z,41.37
2018-03-26T03:07:43.735Z,38.63
2018-03-26T03:10:13.112Z,45.80
2018-03-26T03:12:42.366Z,38.60
2018-03-26T03:15:11.614Z,39.60
2018-03-26T03:17:40.897Z,48.63
2018-03-26T03:20:10.300Z,46.53
2018-03-26T03:22:39.539Z,43.33
2018-03-26T03:25:08.799Z,45.40
2018-03-26T03:27:38.027Z,43.03
2018-03-26T03:30:07.302Z,40.83
2018-03-26T03:32:36.526Z,38.23
2018-03-26T03:35:05.791Z,42.10
2018-03-26T03:37:35.026Z,39.87
2018-03-26T03:40:04.308Z,38.37
2018-03-26T03:42:33.557Z,43.60
2018-03-26T03:45:02.822Z,34.60
2018-03-26T03:47:32.110Z,32.07
2018-03-26T03:50:01.378Z,36.00
2018-03-26T03:52:30.622Z,40.10
2018-03-26T03:54:59.897Z,38.73
2018-03-26T03:57:29.226Z,38.97
2018-03-26T03:59:58.510Z,39.27
2018-03-26T04:02:27.898Z,39.30
2018-03-26T04:04:57.145Z,43.17
2018-03-26T04:07:26.383Z,43.50
2018-03-26T04:09:55.660Z,46.07
2018-03-26T04:12:24.898Z,41.90
2018-03-26T04:14:54.599Z,37.63
2018-03-26T04:17:23.866Z,40.27
2018-03-26T04:19:53.184Z,38.40
2018-03-26T04:22:22.423Z,38.43
2018-03-26T04:24:51.678Z,43.67
2018-03-26T04:27:20.928Z,43.03
2018-03-26T04:29:50.184Z,42.07
2018-03-26T04:32:19.450Z,39.37
2018-03-26T04:34:48.704Z,36.83
2018-03-26T04:37:17.936Z,38.13
2018-03-26T04:39:47.187Z,40.47
2018-03-26T04:42:16.406Z,38.53
2018-03-26T04:44:45.687Z,40.93
2018-03-26T04:47:14.927Z,32.43
2018-03-26T04:49:44.163Z,36.87
2018-03-26T04:52:13.399Z,44.70
2018-03-26T04:54:42.633Z,37.90
2018-03-26T04:57:11.903Z,35.70
2018-03-26T04:59:41.199Z,41.57
2018-03-26T05:02:10.518Z,36.30
2018-03-26T05:04:39.871Z,33.90
2018-03-26T05:07:09.138Z,30.77
2018-03-26T05:09:38.392Z,43.43
2018-03-26T05:12:07.681Z,34.07
2018-03-26T05:14:36.954Z,44.63
2018-03-26T05:17:06.269Z,36.67
2018-03-26T05:19:35.501Z,38.47
2018-03-26T05:22:04.756Z,37.23
2018-03-26T05:24:34.017Z,39.93
2018-03-26T05:27:03.281Z,35.73
2018-03-26T05:29:32.510Z,35.77
2018-03-26T05:32:01.782Z,37.83
2018-03-26T05:34:31.011Z,41.97
2018-03-26T05:37:00.346Z,35.63
2018-03-26T05:39:29.556Z,34.33
2018-03-26T05:41:58.804Z,35.30
2018-03-26T05:44:30.346Z,35.67
2018-03-26T05:46:59.749Z,34.90
2018-03-26T05:49:28.982Z,34.03
2018-03-26T05:51:58.570Z,32.53
2018-03-26T05:54:28.088Z,34.03
2018-03-26T05:56:57.486Z,37.27
2018-03-26T05:59:26.718Z,34.20
2018-03-26T06:01:56.008Z,35.73
2018-03-26T06:04:25.236Z,33.80
2018-03-26T06:06:54.539Z,30.47
2018-03-26T06:09:23.788Z,42.60
2018-03-26T06:11:53.283Z,36.57
2018-03-26T06:14:22.475Z,31.73
2018-03-26T06:16:57.760Z,37.47
2018-03-26T06:19:28.795Z,42.10
2018-03-26T06:22:05.709Z,37.97
2018-03-26T06:24:34.987Z,43.40
2018-03-26T06:27:04.322Z,37.97
2018-03-26T06:29:33.643Z,40.37
2018-03-26T06:32:02.893Z,41.77
2018-03-26T06:34:32.261Z,44.87
2018-03-26T06:37:17.206Z,45.20
2018-03-26T06:39:46.439Z,44.17
2018-03-26T06:42:15.727Z,41.10
2018-03-26T06:44:47.981Z,47.53
2018-03-26T06:47:17.227Z,43.07
2018-03-26T06:49:46.461Z,41.13
2018-03-26T06:52:15.692Z,40.70
2018-03-26T06:54:44.935Z,42.63
2018-03-26T06:57:14.866Z,36.30
2018-03-26T06:59:44.116Z,41.10
2018-03-26T07:02:13.333Z,39.00
2018-03-26T07:04:42.585Z,38.93
2018-03-26T07:07:11.816Z,33.90
2018-03-26T07:09:41.056Z,35.03
2018-03-26T07:12:10.392Z,27.97
2018-03-26T07:14:39.627Z,29.93
2018-03-26T07:17:08.844Z,36.90
2018-03-26T07:19:38.184Z,40.47
2018-03-26T07:22:07.405Z,40.13
2018-03-26T07:24:36.778Z,35.60
2018-03-26T07:27:06.002Z,37.13
2018-03-26T07:29:35.251Z,43.03
2018-03-26T07:32:04.503Z,46.13
2018-03-26T07:34:33.749Z,34.17
2018-03-26T07:37:02.970Z,40.53
2018-03-26T07:39:32.229Z,38.43
2018-03-26T07:42:01.470Z,34.53
2018-03-26T07:44:30.720Z,39.13
2018-03-26T07:46:59.963Z,38.90
2018-03-26T07:49:29.235Z,32.87
2018-03-26T07:51:58.506Z,37.63
2018-03-26T07:54:27.782Z,33.50
2018-03-26T07:56:57.005Z,32.40
2018-03-26T07:59:26.317Z,35.20
2018-03-26T08:01:55.564Z,35.83
2018-03-26T08:04:24.825Z,32.87
2018-03-26T08:06:54.068Z,35.50
2018-03-26T08:09:23.330Z,41.47
2018-03-26T08:11:52.579Z,37.80
2018-03-26T08:14:21.843Z,33.23
2018-03-26T08:16:51.138Z,33.30
2018-03-26T08:19:20.466Z,35.90
2018-03-26T08:21:49.759Z,38.60
2018-03-26T08:24:19.038Z,31.53
2018-03-26T08:26:48.271Z,35.73
2018-03-26T08:29:17.710Z,37.67
2018-03-26T08:31:46.930Z,36.00
2018-03-26T08:34:16.168Z,35.53
2018-03-26T08:36:45.397Z,37.97
2018-03-26T08:39:14.639Z,36.70
2018-03-26T08:41:43.874Z,31.27
2018-03-26T08:44:13.102Z,33.40
2018-03-26T08:46:42.432Z,30.87
2018-03-26T08:49:11.762Z,35.27
2018-03-26T08:51:40.971Z,33.63
2018-03-26T08:54:10.175Z,32.67
2018-03-26T08:56:39.423Z,37.00
2018-03-26T08:59:08.654Z,39.83
2018-03-26T09:01:37.906Z,37.13
2018-03-26T09:04:07.126Z,36.63
2018-03-26T09:06:36.378Z,29.80
2018-03-26T09:09:05.079Z,33.47
2018-03-26T09:11:33.435Z,33.57
2018-03-26T09:14:01.000Z,35.03
2018-03-26T09:16:28.586Z,37.57
2018-03-26T09:18:56.164Z,35.60
2018-03-26T09:21:23.793Z,34.57
2018-03-26T09:23:51.383Z,34.80
2018-03-26T09:26:19.740Z,36.53
2018-03-26T09:28:47.304Z,36.67
2018-03-26T09:31:15.659Z,42.63
2018-03-26T09:33:43.265Z,49.53
2018-03-26T09:36:10.868Z,45.07
2018-03-26T09:38:38.469Z,44.00
2018-03-26T09:41:06.833Z,41.60
2018-03-26T09:43:34.411Z,47.43
2018-03-26T09:46:02.795Z,45.27
2018-03-26T09:48:31.286Z,48.60
2018-03-26T09:50:58.888Z,40.73
2018-03-26T09:53:26.535Z,44.73
2018-03-26T09:55:54.095Z,44.70
2018-03-26T09:58:21.675Z,43.87
2018-03-26T10:00:49.290Z,46.33
2018-03-26T10:03:16.853Z,44.37
2018-03-26T10:05:44.487Z,43.73
2018-03-26T10:08:12.101Z,44.37
2018-03-26T10:10:39.697Z,46.57
2018-03-26T10:13:07.288Z,47.60
2018-03-26T10:15:34.862Z,46.00
2018-03-26T10:18:02.513Z,43.90
2018-03-26T10:20:30.091Z,50.40
2018-03-26T10:22:57.693Z,46.20
2018-03-26T10:25:25.314Z,48.03
2018-03-26T10:27:54.570Z,46.60
2018-03-26T10:30:22.915Z,42.73
2018-03-26T10:32:50.492Z,45.20
2018-03-26T10:35:18.858Z,45.97
2018-03-26T10:37:46.450Z,49.63
2018-03-26T10:40:14.799Z,48.43
2018-03-26T10:42:42.405Z,47.53
2018-03-26T10:45:09.968Z,47.23
2018-03-26T10:47:37.566Z,49.13
2018-03-26T10:50:05.143Z,47.50
2018-03-26T10:52:32.766Z,47.93
2018-03-26T10:55:00.355Z,47.00
2018-03-26T10:57:27.960Z,53.27
2018-03-26T10:59:55.539Z,49.30
2018-03-26T11:02:23.133Z,43.17
2018-03-26T11:04:50.713Z,42.87
2018-03-26T11:07:18.330Z,48.00
2018-03-26T11:09:45.909Z,54.60
2018-03-26T11:12:13.534Z,42.57
2018-03-26T11:14:41.144Z,49.37
2018-03-26T11:17:08.752Z,42.10
2018-03-26T11:19:36.332Z,51.87
2018-03-26T11:22:03.938Z,49.83
2018-03-26T11:24:31.517Z,47.37
2018-03-26T11:26:59.869Z,51.37
2018-03-26T11:29:27.459Z,48.80
2018-03-26T11:31:55.796Z,52.83
2018-03-26T11:34:23.396Z,49.27
2018-03-26T11:36:51.724Z,50.07
2018-03-26T11:39:19.680Z,54.53
2018-03-26T11:41:47.293Z,48.27
2018-03-26T11:44:15.654Z,49.10
2018-03-26T11:46:43.249Z,45.33
2018-03-26T11:49:11.615Z,46.73
2018-03-26T11:51:40.026Z,44.80
2018-03-26T11:54:07.629Z,49.63
2018-03-26T11:56:35.264Z,47.80
2018-03-26T11:59:02.852Z,44.53
2018-03-26T12:01:30.498Z,49.00
2018-03-26T12:03:58.097Z,43.87
2018-03-26T12:06:26.444Z,51.37
2018-03-26T12:08:54.051Z,50.70
2018-03-26T12:11:22.382Z,46.67
2018-03-26T12:13:49.993Z,56.93
2018-03-26T12:16:17.568Z,49.33
2018-03-26T12:18:45.140Z,54.03
2018-03-26T12:21:12.732Z,43.70
2018-03-26T12:23:52.220Z,48.00
2018-03-26T12:26:19.807Z,50.47
2018-03-26T12:28:59.440Z,46.97
2018-03-26T12:31:27.036Z,50.90
2018-03-26T12:34:06.333Z,44.23
2018-03-26T12:36:33.896Z,42.83
2018-03-26T12:39:02.413Z,44.67
2018-03-26T12:41:30.749Z,43.70
2018-03-26T12:43:58.376Z,42.97
2018-03-26T12:46:46.749Z,46.60
2018-03-26T12:49:15.043Z,42.40
2018-03-26T12:51:54.570Z,37.70
2018-03-26T12:54:22.153Z,43.63
2018-03-26T12:56:55.506Z,38.63
2018-03-26T12:59:23.094Z,39.53
2018-03-26T13:02:02.335Z,41.97
2018-03-26T13:04:29.925Z,43.23
2018-03-26T13:06:57.527Z,42.10
2018-03-26T13:09:25.126Z,35.53
2018-03-26T13:11:53.497Z,38.57
2018-03-26T13:14:21.088Z,36.33
2018-03-26T13:16:49.423Z,36.00
2018-03-26T13:19:17.016Z,39.60
2018-03-26T13:21:45.361Z,37.37
2018-03-26T13:24:12.950Z,36.83
2018-03-26T13:26:40.605Z,41.07
2018-03-26T13:29:08.182Z,44.27
2018-03-26T13:31:36.564Z,38.23
2018-03-26T13:34:04.124Z,44.03
2018-03-26T13:36:32.528Z,40.67
2018-03-26T13:39:00.098Z,41.93
2018-03-26T13:41:27.702Z,39.07
2018-03-26T13:43:55.294Z,44.57
2018-03-26T13:46:22.908Z,42.90
2018-03-26T13:48:50.473Z,42.57
2018-03-26T13:51:18.067Z,49.60
2018-03-26T13:53:45.624Z,38.70
2018-03-26T13:56:13.975Z,48.10
2018-03-26T13:58:41.556Z,45.53
2018-03-26T14:01:09.217Z,43.60
2018-03-26T14:03:37.635Z,45.73
2018-03-26T14:06:05.230Z,46.50
2018-03-26T14:08:44.634Z,47.97
2018-03-26T14:11:24.194Z,41.20
2018-03-26T14:14:03.589Z,41.47
2018-03-26T14:16:43.124Z,44.20
2018-03-26T14:19:10.696Z,44.50
2018-03-26T14:21:38.322Z,43.13
2018-03-26T14:24:09.172Z,42.50
2018-03-26T14:26:37.502Z,46.40
2018-03-26T14:29:05.087Z,49.23
2018-03-26T14:31:32.684Z,45.00
2018-03-26T14:34:00.280Z,49.33
2018-03-26T14:36:27.886Z,48.77
2018-03-26T14:38:55.449Z,49.73
2018-03-26T14:41:23.037Z,46.63
2018-03-26T14:43:50.604Z,48.17
2018-03-26T14:46:18.208Z,45.43
2018-03-26T14:48:45.803Z,43.43
2018-03-26T14:51:14.153Z,46.40
2018-03-26T14:53:41.721Z,50.43
2018-03-26T14:56:09.324Z,44.20
2018-03-26T14:58:36.880Z,51.77
2018-03-26T15:01:04.463Z,47.67
2018-03-26T15:03:32.035Z,50.60
2018-03-26T15:05:59.592Z,45.10
2018-03-26T15:08:27.176Z,47.47
2018-03-26T15:10:54.779Z,48.53
2018-03-26T15:13:23.155Z,44.57
2018-03-26T15:15:51.497Z,46.73
2018-03-26T15:18:19.082Z,44.93
2018-03-26T15:20:47.415Z,51.37
2018-03-26T15:23:15.062Z,46.70
2018-03-26T15:25:42.634Z,50.53
2018-03-26T15:28:10.236Z,46.13
2018-03-26T15:30:38.573Z,43.20
2018-03-26T15:33:06.190Z,44.70
2018-03-26T15:35:33.758Z,41.77
2018-03-26T15:38:01.546Z,45.10
2018-03-26T15:40:29.273Z,46.17
2018-03-26T15:42:56.911Z,40.70
2018-03-26T15:45:24.501Z,40.30
2018-03-26T15:47:52.092Z,43.13
2018-03-26T15:50:19.172Z,46.63
2018-03-26T15:52:46.772Z,45.33
2018-03-26T15:55:15.205Z,45.30
2018-03-26T15:57:42.789Z,45.93
2018-03-26T16:00:11.148Z,42.67
2018-03-26T16:02:44.484Z,47.37
2018-03-26T16:05:12.081Z,44.50
2018-03-26T16:07:39.719Z,44.27
2018-03-26T16:10:07.336Z,42.60
2018-03-26T16:12:34.950Z,42.47
2018-03-26T16:15:02.527Z,41.00
2018-03-26T16:17:30.141Z,42.27
2018-03-26T16:19:58.504Z,45.67
2018-03-26T16:22:26.089Z,41.30
2018-03-26T16:24:53.679Z,46.87
2018-03-26T16:27:21.264Z,39.27
2018-03-26T16:29:48.841Z,42.20
2018-03-26T16:32:17.170Z,43.27
2018-03-26T16:34:44.759Z,44.13
2018-03-26T16:37:13.108Z,42.50
2018-03-26T16:39:40.713Z,44.10
2018-03-26T16:45:12.864Z,36.93
2018-03-26T16:47:40.436Z,40.87
2018-03-26T16:50:08.032Z,42.97
2018-03-26T16:52:35.585Z,48.10
2018-03-26T16:55:03.939Z,48.80
2018-03-26T16:57:32.274Z,46.43
2018-03-26T16:59:59.862Z,48.67
2018-03-26T17:02:27.459Z,48.83
2018-03-26T17:04:55.076Z,39.37
2018-03-26T17:07:22.645Z,45.10
2018-03-26T17:09:50.275Z,40.57
2018-03-26T17:12:17.885Z,44.27
2018-03-26T17:14:45.482Z,40.63
2018-03-26T17:17:13.048Z,47.13
2018-03-26T17:19:41.401Z,45.47
2018-03-26T17:22:09.035Z,43.90
2018-03-26T17:24:36.639Z,42.83
2018-03-26T17:27:04.207Z,41.30
2018-03-26T17:29:31.818Z,44.90
2018-03-26T17:31:59.405Z,38.10
2018-03-26T17:34:26.988Z,39.97
2018-03-26T17:36:55.348Z,38.00
2018-03-26T17:39:22.924Z,44.63
2018-03-26T17:41:50.539Z,41.43
2018-03-26T17:44:18.156Z,40.07
2018-03-26T17:46:46.516Z,39.67
2018-03-26T17:49:14.180Z,37.20
2018-03-26T17:51:41.765Z,42.43
2018-03-26T17:54:09.361Z,43.13
2018-03-26T17:56:36.976Z,40.60
2018-03-26T17:59:05.345Z,40.70
2018-03-26T18:01:33.709Z,37.07
2018-03-26T18:04:01.260Z,38.37
2018-03-26T18:06:28.861Z,39.37
2018-03-26T18:08:56.454Z,41.03
2018-03-26T18:11:24.092Z,42.70
2018-03-26T18:13:51.683Z,44.20
2018-03-26T18:16:19.293Z,42.10
2018-03-26T18:18:46.864Z,42.70
2018-03-26T18:21:16.272Z,45.87
2018-03-26T18:23:43.869Z,45.37
2018-03-26T18:26:11.473Z,41.97
2018-03-26T18:28:39.808Z,44.13
2018-03-26T18:31:07.428Z,43.30
2018-03-26T18:33:35.076Z,47.53
2018-03-26T18:36:03.434Z,44.53
2018-03-26T18:38:31.031Z,43.80
2018-03-26T18:40:58.613Z,40.80
2018-03-26T18:43:26.195Z,47.60
2018-03-26T18:45:53.788Z,37.73
2018-03-26T18:48:22.208Z,38.87
2018-03-26T18:50:49.796Z,44.77
2018-03-26T18:53:17.374Z,40.83
2018-03-26T18:55:44.987Z,43.03
2018-03-26T18:58:12.593Z,49.40
2018-03-26T19:00:40.330Z,43.10
2018-03-26T19:03:07.920Z,38.83
2018-03-26T19:05:36.094Z,43.87
2018-03-26T19:08:03.691Z,43.17
2018-03-26T19:10:31.257Z,44.60
2018-03-26T19:12:58.845Z,56.73
2018-03-26T19:15:26.422Z,53.70
2018-03-26T19:17:54.020Z,44.80
2018-03-26T19:20:21.606Z,46.20
2018-03-26T19:22:49.243Z,45.23
2018-03-26T19:25:16.842Z,70.60
2018-03-26T19:27:44.449Z,67.60
2018-03-26T19:30:12.071Z,61.63
2018-03-26T19:32:39.706Z,60.43
2018-03-26T19:35:07.731Z,67.93
2018-03-26T19:37:36.139Z,71.70
2018-03-26T19:40:04.493Z,60.07
2018-03-26T19:42:32.846Z,56.43
2018-03-26T19:45:00.402Z,59.90
2018-03-26T19:47:27.994Z,51.20
2018-03-26T19:49:55.574Z,50.37
2018-03-26T19:52:23.152Z,49.43
2018-03-26T19:54:50.716Z,54.53
2018-03-26T19:57:18.301Z,48.90
2018-03-26T19:59:45.859Z,45.73
2018-03-26T20:02:13.483Z,46.60
2018-03-26T20:04:41.493Z,48.03
2018-03-26T20:07:09.155Z,45.07
2018-03-26T20:09:36.732Z,47.30
2018-03-26T20:12:04.318Z,46.07
2018-03-26T20:14:32.734Z,41.57
2018-03-26T20:17:00.313Z,56.80
2018-03-26T20:19:27.914Z,43.60
2018-03-26T20:21:56.302Z,47.80
2018-03-26T20:24:23.869Z,45.20
2018-03-26T20:26:51.509Z,46.37
2018-03-26T20:29:19.872Z,45.90
2018-03-26T20:31:47.466Z,41.20
2018-03-26T20:34:15.082Z,46.13
2018-03-26T20:36:42.811Z,45.03
2018-03-26T20:39:10.540Z,44.90
2018-03-26T20:41:39.204Z,45.53
2018-03-26T20:44:06.815Z,50.73
2018-03-26T20:46:34.864Z,42.03
2018-03-26T20:49:03.251Z,43.63
2018-03-26T20:51:33.776Z,46.23
2018-03-26T20:54:02.193Z,42.50
2018-03-26T20:56:29.857Z,44.10
2018-03-26T20:58:57.472Z,41.40
2018-03-26T21:01:25.814Z,49.37
2018-03-26T21:03:53.453Z,42.43
2018-03-26T21:06:21.013Z,45.90
2018-03-26T21:08:48.631Z,49.10
2018-03-26T21:11:16.974Z,41.60
2018-03-26T21:13:44.586Z,51.10
2018-03-26T21:16:12.160Z,49.90
2018-03-26T21:18:39.736Z,46.80
2018-03-26T21:21:07.352Z,46.30
2018-03-26T21:23:35.702Z,51.17
2018-03-26T21:26:03.320Z,45.93
2018-03-26T21:28:30.898Z,44.73
2018-03-26T21:30:58.514Z,47.20
2018-03-26T21:33:26.880Z,44.97
2018-03-26T21:35:55.297Z,53.23
2018-03-26T21:38:22.890Z,47.07
2018-03-26T21:40:50.499Z,47.27
2018-03-26T21:43:18.869Z,48.43
2018-03-26T21:45:47.253Z,46.27
2018-03-26T21:48:15.676Z,50.43
2018-03-26T21:50:43.334Z,47.50
2018-03-26T21:53:10.969Z,47.47
2018-03-26T21:55:39.438Z,49.13
2018-03-26T21:58:06.999Z,49.90
2018-03-26T22:00:35.358Z,49.60
2018-03-26T22:03:03.854Z,45.07
2018-03-26T22:05:32.250Z,54.13
2018-03-26T22:07:59.820Z,56.33
2018-03-26T22:10:27.412Z,55.93
2018-03-26T22:12:54.974Z,53.83
2018-03-26T22:15:22.593Z,46.27
2018-03-26T22:17:50.165Z,52.10
2018-03-26T22:20:17.763Z,50.63
2018-03-26T22:22:46.106Z,49.30
2018-03-26T22:25:13.753Z,49.93
2018-03-26T22:27:41.383Z,52.97
2018-03-26T22:30:09.000Z,52.70
2018-03-26T22:32:36.608Z,51.73
2018-03-26T22:35:04.884Z,52.53
2018-03-26T22:37:32.497Z,51.03
2018-03-26T22:40:00.110Z,51.07
2018-03-26T22:42:27.733Z,49.60
2018-03-26T22:44:55.338Z,58.10
2018-03-26T22:47:22.997Z,52.77
2018-03-26T22:49:50.551Z,62.20
2018-03-26T22:52:18.142Z,56.50
2018-03-26T22:54:45.700Z,55.63
2018-03-26T22:57:13.296Z,54.47
2018-03-26T22:59:41.643Z,60.50
2018-03-26T23:02:09.234Z,64.93
2018-03-26T23:04:37.634Z,58.00
2018-03-26T23:07:05.985Z,57.87
2018-03-26T23:09:33.569Z,55.90
2018-03-26T23:12:01.954Z,57.33
2018-03-26T23:14:30.287Z,58.17
2018-03-26T23:16:57.909Z,57.30
2018-03-26T23:19:25.517Z,56.10
2018-03-26T23:21:53.130Z,57.27
2018-03-26T23:24:20.712Z,54.87
2018-03-26T23:26:48.303Z,53.13
2018-03-26T23:29:15.876Z,60.67
2018-03-26T23:31:44.234Z,63.53
2018-03-26T23:34:11.794Z,65.00
2018-03-26T23:36:39.387Z,56.17
2018-03-26T23:39:07.732Z,63.13
2018-03-26T23:41:35.317Z,60.90
2018-03-26T23:44:03.696Z,61.90
2018-03-26T23:46:32.062Z,57.07
2018-03-26T23:48:59.650Z,64.33
2018-03-26T23:51:27.219Z,57.10
2018-03-26T23:53:54.823Z,55.27
2018-03-26T23:56:22.380Z,65.70
2018-03-26T23:58:49.955Z,61.67
